sensor_id;sensor_type;location;lat;lon;timestamp;pressure;altitude;pressure_sealevel;temperature;humidity
74659;BME280;63186;51.204;6.536;2023-03-14T00:00:32;98699.41;;;10.58;86.36
74659;BME280;63186;51.204;6.536;2023-03-14T00:02:57;98696.28;;;10.60;86.21
74659;BME280;63186;51.204;6.536;2023-03-14T00:05:22;98684.91;;;10.62;85.98
74659;BME280;63186;51.204;6.536;2023-03-14T00:07:47;98690.66;;;10.72;85.33
74659;BME280;63186;51.204;6.536;2023-03-14T00:10:14;98688.03;;;10.79;84.32
74659;BME280;63186;51.204;6.536;2023-03-14T00:12:41;98694.47;;;10.87;84.54
74659;BME280;63186;51.204;6.536;2023-03-14T00:15:07;98705.28;;;10.76;88.16
74659;BME280;63186;51.204;6.536;2023-03-14T00:17:34;98718.00;;;10.46;90.53
74659;BME280;63186;51.204;6.536;2023-03-14T00:20:00;98732.53;;;10.11;96.00
74659;BME280;63186;51.204;6.536;2023-03-14T00:22:34;98737.47;;;9.58;100.00
74659;BME280;63186;51.204;6.536;2023-03-14T00:24:59;98755.22;;;9.17;100.00
74659;BME280;63186;51.204;6.536;2023-03-14T00:27:24;98740.72;;;8.88;100.00
74659;BME280;63186;51.204;6.536;2023-03-14T00:29:49;98741.09;;;8.75;100.00
74659;BME280;63186;51.204;6.536;2023-03-14T00:32:15;98748.78;;;8.69;100.00
74659;BME280;63186;51.204;6.536;2023-03-14T00:34:40;98763.16;;;8.66;100.00
74659;BME280;63186;51.204;6.536;2023-03-14T00:37:06;98753.00;;;8.66;100.00
74659;BME280;63186;51.204;6.536;2023-03-14T00:39:31;98767.28;;;8.72;100.00
74659;BME280;63186;51.204;6.536;2023-03-14T00:41:56;98759.97;;;8.64;100.00
74659;BME280;63186;51.204;6.536;2023-03-14T00:44:21;98754.16;;;8.65;100.00
74659;BME280;63186;51.204;6.536;2023-03-14T00:46:47;98736.44;;;8.63;100.00
74659;BME280;63186;51.204;6.536;2023-03-14T00:49:12;98728.81;;;8.56;100.00
74659;BME280;63186;51.204;6.536;2023-03-14T00:51:37;98720.81;;;8.51;100.00
74659;BME280;63186;51.204;6.536;2023-03-14T00:54:02;98721.63;;;8.52;100.00
74659;BME280;63186;51.204;6.536;2023-03-14T00:56:28;98717.16;;;8.47;100.00
74659;BME280;63186;51.204;6.536;2023-03-14T00:58:54;98717.16;;;8.47;100.00
74659;BME280;63186;51.204;6.536;2023-03-14T01:01:21;98728.13;;;8.47;100.00
74659;BME280;63186;51.204;6.536;2023-03-14T01:03:47;98729.63;;;8.45;100.00
74659;BME280;63186;51.204;6.536;2023-03-14T01:06:16;98732.03;;;8.46;100.00
74659;BME280;63186;51.204;6.536;2023-03-14T01:08:42;98725.28;;;8.43;100.00
74659;BME280;63186;51.204;6.536;2023-03-14T01:11:09;98725.66;;;8.42;100.00
74659;BME280;63186;51.204;6.536;2023-03-14T01:13:35;98714.91;;;8.37;100.00
74659;BME280;63186;51.204;6.536;2023-03-14T01:16:03;98715.56;;;8.34;100.00
74659;BME280;63186;51.204;6.536;2023-03-14T01:18:30;98716.94;;;8.28;100.00
74659;BME280;63186;51.204;6.536;2023-03-14T01:20:55;98716.50;;;8.26;100.00
74659;BME280;63186;51.204;6.536;2023-03-14T01:23:20;98722.09;;;8.29;100.00
74659;BME280;63186;51.204;6.536;2023-03-14T01:25:46;98713.09;;;8.29;100.00
74659;BME280;63186;51.204;6.536;2023-03-14T01:28:11;98704.50;;;8.42;100.00
74659;BME280;63186;51.204;6.536;2023-03-14T01:30:39;98700.13;;;8.54;100.00
74659;BME280;63186;51.204;6.536;2023-03-14T01:33:04;98684.56;;;8.58;100.00
74659;BME280;63186;51.204;6.536;2023-03-14T01:35:30;98683.19;;;8.64;100.00
74659;BME280;63186;51.204;6.536;2023-03-14T01:37:55;98673.13;;;8.68;100.00
74659;BME280;63186;51.204;6.536;2023-03-14T01:40:20;98691.63;;;8.71;100.00
74659;BME280;63186;51.204;6.536;2023-03-14T01:42:53;98686.47;;;8.69;100.00
74659;BME280;63186;51.204;6.536;2023-03-14T01:48:22;98692.31;;;8.68;100.00
74659;BME280;63186;51.204;6.536;2023-03-14T01:50:47;98689.31;;;8.73;100.00
74659;BME280;63186;51.204;6.536;2023-03-14T01:53:13;98691.00;;;8.78;100.00
74659;BME280;63186;51.204;6.536;2023-03-14T01:55:40;98695.81;;;8.81;100.00
74659;BME280;63186;51.204;6.536;2023-03-14T01:58:05;98683.59;;;8.78;100.00
74659;BME280;63186;51.204;6.536;2023-03-14T02:00:31;98677.66;;;8.76;100.00
74659;BME280;63186;51.204;6.536;2023-03-14T02:03:04;98674.56;;;8.78;100.00
74659;BME280;63186;51.204;6.536;2023-03-14T02:05:35;98671.44;;;8.79;100.00
74659;BME280;63186;51.204;6.536;2023-03-14T02:08:06;98663.94;;;8.76;100.00
74659;BME280;63186;51.204;6.536;2023-03-14T02:10:35;98651.69;;;8.74;100.00
74659;BME280;63186;51.204;6.536;2023-03-14T02:13:03;98654.91;;;8.76;100.00
74659;BME280;63186;51.204;6.536;2023-03-14T02:15:29;98670.03;;;8.69;100.00
74659;BME280;63186;51.204;6.536;2023-03-14T02:17:56;98662.63;;;8.58;100.00
74659;BME280;63186;51.204;6.536;2023-03-14T02:23:00;98683.97;;;8.64;100.00
74659;BME280;63186;51.204;6.536;2023-03-14T02:27:54;98692.84;;;8.74;100.00
74659;BME280;63186;51.204;6.536;2023-03-14T02:30:22;98690.81;;;8.70;100.00
74659;BME280;63186;51.204;6.536;2023-03-14T02:32:51;98693.56;;;8.70;100.00
74659;BME280;63186;51.204;6.536;2023-03-14T02:35:22;98690.47;;;8.72;100.00
74659;BME280;63186;51.204;6.536;2023-03-14T02:37:52;98689.22;;;8.69;100.00
74659;BME280;63186;51.204;6.536;2023-03-14T02:40:18;98693.91;;;8.69;100.00
74659;BME280;63186;51.204;6.536;2023-03-14T02:42:44;98689.66;;;8.72;100.00
74659;BME280;63186;51.204;6.536;2023-03-14T02:47:37;98678.25;;;8.69;100.00
74659;BME280;63186;51.204;6.536;2023-03-14T02:50:10;98672.06;;;8.73;100.00
74659;BME280;63186;51.204;6.536;2023-03-14T02:52:37;98669.66;;;8.71;100.00
74659;BME280;63186;51.204;6.536;2023-03-14T02:55:03;98668.88;;;8.70;100.00
74659;BME280;63186;51.204;6.536;2023-03-14T02:57:28;98660.28;;;8.72;99.98
74659;BME280;63186;51.204;6.536;2023-03-14T02:59:54;98668.28;;;8.77;99.95
74659;BME280;63186;51.204;6.536;2023-03-14T03:02:23;98658.88;;;8.78;99.73
74659;BME280;63186;51.204;6.536;2023-03-14T03:04:48;98649.88;;;8.78;99.78
74659;BME280;63186;51.204;6.536;2023-03-14T03:07:13;98650.31;;;8.80;100.00
74659;BME280;63186;51.204;6.536;2023-03-14T03:09:39;98655.00;;;8.79;99.76
74659;BME280;63186;51.204;6.536;2023-03-14T03:12:04;98657.84;;;8.83;99.89
74659;BME280;63186;51.204;6.536;2023-03-14T03:14:29;98651.91;;;8.81;100.00
74659;BME280;63186;51.204;6.536;2023-03-14T03:16:54;98660.47;;;8.79;100.00
74659;BME280;63186;51.204;6.536;2023-03-14T03:19:20;98660.41;;;8.76;100.00
74659;BME280;63186;51.204;6.536;2023-03-14T03:21:45;98653.31;;;8.75;100.00
74659;BME280;63186;51.204;6.536;2023-03-14T03:24:11;98653.31;;;8.75;100.00
74659;BME280;63186;51.204;6.536;2023-03-14T03:26:36;98646.13;;;8.70;100.00
74659;BME280;63186;51.204;6.536;2023-03-14T03:29:02;98642.16;;;8.67;100.00
74659;BME280;63186;51.204;6.536;2023-03-14T03:31:27;98643.63;;;8.65;100.00
74659;BME280;63186;51.204;6.536;2023-03-14T03:33:53;98653.00;;;8.64;100.00
74659;BME280;63186;51.204;6.536;2023-03-14T03:36:23;98645.50;;;8.61;100.00
74659;BME280;63186;51.204;6.536;2023-03-14T03:38:49;98657.94;;;8.58;100.00
74659;BME280;63186;51.204;6.536;2023-03-14T03:41:14;98654.66;;;8.53;100.00
74659;BME280;63186;51.204;6.536;2023-03-14T03:43:39;98650.13;;;8.45;100.00
74659;BME280;63186;51.204;6.536;2023-03-14T03:46:06;98645.44;;;8.33;100.00
74659;BME280;63186;51.204;6.536;2023-03-14T03:48:31;98640.88;;;8.25;100.00
74659;BME280;63186;51.204;6.536;2023-03-14T03:50:57;98632.34;;;8.14;100.00
74659;BME280;63186;51.204;6.536;2023-03-14T03:53:22;98631.94;;;8.00;100.00
74659;BME280;63186;51.204;6.536;2023-03-14T03:55:47;98634.00;;;7.91;100.00
74659;BME280;63186;51.204;6.536;2023-03-14T03:58:13;98622.13;;;7.86;100.00
74659;BME280;63186;51.204;6.536;2023-03-14T04:00:38;98647.59;;;7.87;100.00
74659;BME280;63186;51.204;6.536;2023-03-14T04:03:04;98660.72;;;7.81;100.00
74659;BME280;63186;51.204;6.536;2023-03-14T04:05:29;98638.56;;;7.74;100.00
74659;BME280;63186;51.204;6.536;2023-03-14T04:07:54;98650.09;;;7.68;100.00
74659;BME280;63186;51.204;6.536;2023-03-14T04:10:20;98635.97;;;7.66;100.00
74659;BME280;63186;51.204;6.536;2023-03-14T04:12:45;98614.97;;;7.70;100.00
74659;BME280;63186;51.204;6.536;2023-03-14T04:15:10;98629.91;;;7.72;100.00
74659;BME280;63186;51.204;6.536;2023-03-14T04:17:36;98641.66;;;7.73;100.00
74659;BME280;63186;51.204;6.536;2023-03-14T04:20:01;98639.72;;;7.73;100.00
74659;BME280;63186;51.204;6.536;2023-03-14T04:22:27;98639.28;;;7.71;100.00
74659;BME280;63186;51.204;6.536;2023-03-14T04:24:52;98637.69;;;7.70;100.00
74659;BME280;63186;51.204;6.536;2023-03-14T04:27:17;98636.19;;;7.73;100.00
74659;BME280;63186;51.204;6.536;2023-03-14T04:29:43;98632.31;;;7.74;100.00
74659;BME280;63186;51.204;6.536;2023-03-14T04:32:08;98626.47;;;7.75;100.00
74659;BME280;63186;51.204;6.536;2023-03-14T04:34:33;98625.22;;;7.73;100.00
74659;BME280;63186;51.204;6.536;2023-03-14T04:36:58;98614.63;;;7.71;100.00
74659;BME280;63186;51.204;6.536;2023-03-14T04:39:24;98604.47;;;7.72;100.00
74659;BME280;63186;51.204;6.536;2023-03-14T04:41:49;98598.19;;;7.71;100.00
74659;BME280;63186;51.204;6.536;2023-03-14T04:44:14;98594.31;;;7.72;100.00
74659;BME280;63186;51.204;6.536;2023-03-14T04:46:39;98593.06;;;7.70;100.00
74659;BME280;63186;51.204;6.536;2023-03-14T04:49:05;98592.25;;;7.69;100.00
74659;BME280;63186;51.204;6.536;2023-03-14T04:51:30;98573.53;;;7.71;100.00
74659;BME280;63186;51.204;6.536;2023-03-14T04:53:55;98580.25;;;7.74;100.00
74659;BME280;63186;51.204;6.536;2023-03-14T04:56:21;98579.13;;;7.75;100.00
74659;BME280;63186;51.204;6.536;2023-03-14T04:58:46;98578.88;;;7.80;100.00
74659;BME280;63186;51.204;6.536;2023-03-14T05:01:11;98564.25;;;7.88;100.00
74659;BME280;63186;51.204;6.536;2023-03-14T05:03:37;98560.47;;;7.93;100.00
74659;BME280;63186;51.204;6.536;2023-03-14T05:06:03;98561.03;;;7.98;100.00
74659;BME280;63186;51.204;6.536;2023-03-14T05:08:29;98563.53;;;8.03;100.00
74659;BME280;63186;51.204;6.536;2023-03-14T05:10:55;98554.63;;;8.06;100.00
74659;BME280;63186;51.204;6.536;2023-03-14T05:13:21;98556.41;;;8.14;100.00
74659;BME280;63186;51.204;6.536;2023-03-14T05:15:46;98569.31;;;8.14;100.00
74659;BME280;63186;51.204;6.536;2023-03-14T05:18:12;98571.47;;;8.21;100.00
74659;BME280;63186;51.204;6.536;2023-03-14T05:20:37;98565.19;;;8.20;100.00
74659;BME280;63186;51.204;6.536;2023-03-14T05:23:02;98555.28;;;8.15;100.00
74659;BME280;63186;51.204;6.536;2023-03-14T05:25:28;98555.59;;;8.14;100.00
74659;BME280;63186;51.204;6.536;2023-03-14T05:27:54;98556.41;;;8.14;100.00
74659;BME280;63186;51.204;6.536;2023-03-14T05:30:20;98546.59;;;8.13;100.00
74659;BME280;63186;51.204;6.536;2023-03-14T05:32:47;98537.56;;;8.13;100.00
74659;BME280;63186;51.204;6.536;2023-03-14T05:35:12;98540.31;;;8.13;100.00
74659;BME280;63186;51.204;6.536;2023-03-14T05:37:37;98535.81;;;8.21;100.00
74659;BME280;63186;51.204;6.536;2023-03-14T05:40:04;98541.41;;;8.24;100.00
74659;BME280;63186;51.204;6.536;2023-03-14T05:42:31;98541.41;;;8.24;100.00
74659;BME280;63186;51.204;6.536;2023-03-14T05:44:57;98542.66;;;8.27;100.00
74659;BME280;63186;51.204;6.536;2023-03-14T05:47:22;98543.13;;;8.29;100.00
74659;BME280;63186;51.204;6.536;2023-03-14T05:49:47;98548.69;;;8.32;100.00
74659;BME280;63186;51.204;6.536;2023-03-14T05:52:13;98538.44;;;8.29;100.00
74659;BME280;63186;51.204;6.536;2023-03-14T05:54:39;98538.75;;;8.28;100.00
74659;BME280;63186;51.204;6.536;2023-03-14T05:57:04;98536.50;;;8.30;100.00
74659;BME280;63186;51.204;6.536;2023-03-14T05:59:29;98533.41;;;8.31;100.00
74659;BME280;63186;51.204;6.536;2023-03-14T06:01:55;98524.44;;;8.34;100.00
74659;BME280;63186;51.204;6.536;2023-03-14T06:04:20;98525.97;;;8.32;100.00
74659;BME280;63186;51.204;6.536;2023-03-14T06:06:45;98527.47;;;8.29;100.00
74659;BME280;63186;51.204;6.536;2023-03-14T06:09:10;98523.38;;;8.23;100.00
74659;BME280;63186;51.204;6.536;2023-03-14T06:11:36;98529.31;;;8.25;100.00
74659;BME280;63186;51.204;6.536;2023-03-14T06:14:01;98533.75;;;8.30;100.00
74659;BME280;63186;51.204;6.536;2023-03-14T06:16:26;98525.97;;;8.32;100.00
74659;BME280;63186;51.204;6.536;2023-03-14T06:18:51;98524.81;;;8.33;100.00
74659;BME280;63186;51.204;6.536;2023-03-14T06:21:17;98526.91;;;8.36;100.00
74659;BME280;63186;51.204;6.536;2023-03-14T06:23:43;98528.31;;;8.46;100.00
74659;BME280;63186;51.204;6.536;2023-03-14T06:26:08;98523.31;;;8.48;100.00
74659;BME280;63186;51.204;6.536;2023-03-14T06:28:33;98520.56;;;8.48;100.00
74659;BME280;63186;51.204;6.536;2023-03-14T06:31:00;98533.19;;;8.52;100.00
74659;BME280;63186;51.204;6.536;2023-03-14T06:33:25;98531.34;;;8.56;100.00
74659;BME280;63186;51.204;6.536;2023-03-14T06:35:51;98533.22;;;8.68;100.00
74659;BME280;63186;51.204;6.536;2023-03-14T06:38:16;98531.47;;;8.76;100.00
74659;BME280;63186;51.204;6.536;2023-03-14T06:40:41;98524.09;;;8.80;100.00
74659;BME280;63186;51.204;6.536;2023-03-14T06:43:06;98530.41;;;8.80;100.00
74659;BME280;63186;51.204;6.536;2023-03-14T06:45:32;98524.94;;;8.80;100.00
74659;BME280;63186;51.204;6.536;2023-03-14T06:47:57;98537.81;;;8.80;100.00
74659;BME280;63186;51.204;6.536;2023-03-14T06:50:22;98531.53;;;8.79;100.00
74659;BME280;63186;51.204;6.536;2023-03-14T06:52:48;98542.69;;;8.86;100.00
74659;BME280;63186;51.204;6.536;2023-03-14T06:55:14;98533.34;;;8.87;100.00
74659;BME280;63186;51.204;6.536;2023-03-14T06:57:40;98538.34;;;8.85;100.00
74659;BME280;63186;51.204;6.536;2023-03-14T07:00:06;98550.50;;;8.84;100.00
74659;BME280;63186;51.204;6.536;2023-03-14T07:02:31;98547.81;;;8.72;100.00
74659;BME280;63186;51.204;6.536;2023-03-14T07:04:57;98555.19;;;8.68;100.00
74659;BME280;63186;51.204;6.536;2023-03-14T07:07:22;98555.44;;;8.63;100.00
74659;BME280;63186;51.204;6.536;2023-03-14T07:09:47;98552.56;;;8.59;100.00
74659;BME280;63186;51.204;6.536;2023-03-14T07:12:13;98555.50;;;8.66;100.00
74659;BME280;63186;51.204;6.536;2023-03-14T07:14:38;98561.19;;;8.74;100.00
74659;BME280;63186;51.204;6.536;2023-03-14T07:17:03;98557.03;;;8.80;100.00
74659;BME280;63186;51.204;6.536;2023-03-14T07:19:28;98564.63;;;8.86;100.00
74659;BME280;63186;51.204;6.536;2023-03-14T07:21:54;98566.78;;;8.93;100.00
74659;BME280;63186;51.204;6.536;2023-03-14T07:24:19;98561.81;;;8.98;100.00
74659;BME280;63186;51.204;6.536;2023-03-14T07:26:44;98561.66;;;9.07;100.00
74659;BME280;63186;51.204;6.536;2023-03-14T07:29:10;98559.63;;;9.04;100.00
74659;BME280;63186;51.204;6.536;2023-03-14T07:31:35;98558.03;;;9.03;100.00
74659;BME280;63186;51.204;6.536;2023-03-14T07:34:00;98558.81;;;9.04;100.00
74659;BME280;63186;51.204;6.536;2023-03-14T07:36:25;98559.88;;;9.15;100.00
74659;BME280;63186;51.204;6.536;2023-03-14T07:38:51;98566.25;;;9.35;100.00
74659;BME280;63186;51.204;6.536;2023-03-14T07:41:17;98574.22;;;9.75;100.00
74659;BME280;63186;51.204;6.536;2023-03-14T07:43:43;98573.75;;;11.08;98.82
74659;BME280;63186;51.204;6.536;2023-03-14T07:46:08;98585.41;;;11.02;97.43
74659;BME280;63186;51.204;6.536;2023-03-14T07:48:33;98574.88;;;10.62;99.88
74659;BME280;63186;51.204;6.536;2023-03-14T07:50:59;98580.03;;;10.44;100.00
74659;BME280;63186;51.204;6.536;2023-03-14T07:53:24;98579.09;;;10.36;100.00
74659;BME280;63186;51.204;6.536;2023-03-14T07:55:54;98589.09;;;10.25;100.00
74659;BME280;63186;51.204;6.536;2023-03-14T07:58:20;98585.53;;;10.24;100.00
74659;BME280;63186;51.204;6.536;2023-03-14T08:00:47;98588.28;;;10.24;100.00
74659;BME280;63186;51.204;6.536;2023-03-14T08:03:12;98592.50;;;10.22;100.00
74659;BME280;63186;51.204;6.536;2023-03-14T08:05:37;98585.00;;;10.19;100.00
74659;BME280;63186;51.204;6.536;2023-03-14T08:08:04;98595.91;;;10.15;100.00
74659;BME280;63186;51.204;6.536;2023-03-14T08:10:29;98594.97;;;10.07;100.00
74659;BME280;63186;51.204;6.536;2023-03-14T08:12:56;98593.75;;;10.05;100.00
74659;BME280;63186;51.204;6.536;2023-03-14T08:15:23;98595.69;;;10.04;100.00
74659;BME280;63186;51.204;6.536;2023-03-14T08:17:49;98598.63;;;9.96;100.00
74659;BME280;63186;51.204;6.536;2023-03-14T08:20:24;98587.50;;;9.89;100.00
74659;BME280;63186;51.204;6.536;2023-03-14T08:22:50;98595.81;;;9.92;100.00
74659;BME280;63186;51.204;6.536;2023-03-14T08:25:15;98594.66;;;9.93;100.00
74659;BME280;63186;51.204;6.536;2023-03-14T08:27:41;98611.38;;;9.85;100.00
74659;BME280;63186;51.204;6.536;2023-03-14T08:30:13;98606.50;;;9.78;100.00
74659;BME280;63186;51.204;6.536;2023-03-14T08:32:39;98608.38;;;9.74;100.00
74659;BME280;63186;51.204;6.536;2023-03-14T08:35:05;98614.56;;;9.71;100.00
74659;BME280;63186;51.204;6.536;2023-03-14T08:37:35;98628.84;;;9.61;100.00
74659;BME280;63186;51.204;6.536;2023-03-14T08:40:01;98631.34;;;9.50;100.00
74659;BME280;63186;51.204;6.536;2023-03-14T08:42:31;98630.00;;;9.44;100.00
74659;BME280;63186;51.204;6.536;2023-03-14T08:44:56;98630.00;;;9.44;100.00
74659;BME280;63186;51.204;6.536;2023-03-14T08:47:21;98635.97;;;9.46;100.00
74659;BME280;63186;51.204;6.536;2023-03-14T08:49:47;98646.16;;;9.45;100.00
74659;BME280;63186;51.204;6.536;2023-03-14T08:52:12;98640.19;;;9.43;100.00
74659;BME280;63186;51.204;6.536;2023-03-14T08:54:37;98652.16;;;9.51;100.00
74659;BME280;63186;51.204;6.536;2023-03-14T08:57:02;98653.56;;;9.61;100.00
74659;BME280;63186;51.204;6.536;2023-03-14T08:59:28;98661.56;;;9.66;100.00
74659;BME280;63186;51.204;6.536;2023-03-14T09:01:53;98669.69;;;9.62;100.00
74659;BME280;63186;51.204;6.536;2023-03-14T09:04:19;98684.84;;;9.40;100.00
74659;BME280;63186;51.204;6.536;2023-03-14T09:06:45;98703.47;;;9.03;100.00
74659;BME280;63186;51.204;6.536;2023-03-14T09:09:10;98712.97;;;8.78;100.00
74659;BME280;63186;51.204;6.536;2023-03-14T09:11:35;98732.13;;;8.50;100.00
74659;BME280;63186;51.204;6.536;2023-03-14T09:14:01;98741.66;;;8.15;100.00
74659;BME280;63186;51.204;6.536;2023-03-14T09:16:26;98767.22;;;8.07;100.00
74659;BME280;63186;51.204;6.536;2023-03-14T09:18:51;98779.44;;;7.98;100.00
74659;BME280;63186;51.204;6.536;2023-03-14T09:21:20;98787.28;;;7.87;100.00
74659;BME280;63186;51.204;6.536;2023-03-14T09:23:46;98795.72;;;7.82;100.00
74659;BME280;63186;51.204;6.536;2023-03-14T09:26:11;98805.16;;;7.60;100.00
74659;BME280;63186;51.204;6.536;2023-03-14T09:28:37;98811.78;;;7.59;100.00
74659;BME280;63186;51.204;6.536;2023-03-14T09:31:10;98826.88;;;7.65;100.00
74659;BME280;63186;51.204;6.536;2023-03-14T09:33:36;98833.69;;;7.59;100.00
74659;BME280;63186;51.204;6.536;2023-03-14T09:36:02;98833.78;;;7.50;100.00
74659;BME280;63186;51.204;6.536;2023-03-14T09:38:27;98851.66;;;7.48;100.00
74659;BME280;63186;51.204;6.536;2023-03-14T09:40:53;98850.78;;;7.56;100.00
74659;BME280;63186;51.204;6.536;2023-03-14T09:43:20;98869.84;;;7.52;100.00
74659;BME280;63186;51.204;6.536;2023-03-14T09:45:48;98881.44;;;7.49;100.00
74659;BME280;63186;51.204;6.536;2023-03-14T09:48:20;98897.56;;;7.51;100.00
74659;BME280;63186;51.204;6.536;2023-03-14T09:50:53;98899.81;;;7.49;100.00
74659;BME280;63186;51.204;6.536;2023-03-14T09:53:37;98919.75;;;7.37;100.00
74659;BME280;63186;51.204;6.536;2023-03-14T09:56:07;98926.56;;;7.31;100.00
74659;BME280;63186;51.204;6.536;2023-03-14T09:58:35;98942.97;;;7.31;100.00
74659;BME280;63186;51.204;6.536;2023-03-14T10:01:01;98948.03;;;7.20;100.00
74659;BME280;63186;51.204;6.536;2023-03-14T10:03:33;98954.22;;;7.29;100.00
74659;BME280;63186;51.204;6.536;2023-03-14T10:05:59;98962.31;;;7.47;100.00
74659;BME280;63186;51.204;6.536;2023-03-14T10:08:24;98967.41;;;7.57;100.00
74659;BME280;63186;51.204;6.536;2023-03-14T10:10:50;98973.19;;;7.55;100.00
74659;BME280;63186;51.204;6.536;2023-03-14T10:13:21;98985.19;;;7.51;100.00
74659;BME280;63186;51.204;6.536;2023-03-14T10:16:01;98993.84;;;7.53;100.00
74659;BME280;63186;51.204;6.536;2023-03-14T10:18:29;99011.47;;;7.43;100.00
74659;BME280;63186;51.204;6.536;2023-03-14T10:21:21;98993.78;;;7.41;100.00
74659;BME280;63186;51.204;6.536;2023-03-14T10:23:50;99013.88;;;7.45;100.00
74659;BME280;63186;51.204;6.536;2023-03-14T10:26:18;99018.16;;;7.54;100.00
74659;BME280;63186;51.204;6.536;2023-03-14T10:28:51;99029.72;;;7.60;100.00
74659;BME280;63186;51.204;6.536;2023-03-14T10:31:18;99037.84;;;7.69;100.00
74659;BME280;63186;51.204;6.536;2023-03-14T10:34:00;99050.75;;;7.68;100.00
74659;BME280;63186;51.204;6.536;2023-03-14T10:36:27;99063.38;;;7.60;100.00
74659;BME280;63186;51.204;6.536;2023-03-14T10:38:58;99064.09;;;7.49;100.00
74659;BME280;63186;51.204;6.536;2023-03-14T10:41:31;99064.88;;;7.49;100.00
74659;BME280;63186;51.204;6.536;2023-03-14T10:43:59;99084.56;;;7.43;100.00
74659;BME280;63186;51.204;6.536;2023-03-14T10:46:26;99106.06;;;7.32;100.00
74659;BME280;63186;51.204;6.536;2023-03-14T10:48:55;99122.84;;;7.22;100.00
74659;BME280;63186;51.204;6.536;2023-03-14T10:51:26;99130.47;;;7.07;100.00
74659;BME280;63186;51.204;6.536;2023-03-14T10:54:04;99151.47;;;6.77;100.00
74659;BME280;63186;51.204;6.536;2023-03-14T10:56:37;99184.63;;;6.50;100.00
74659;BME280;63186;51.204;6.536;2023-03-14T10:59:06;99193.16;;;6.40;100.00
74659;BME280;63186;51.204;6.536;2023-03-14T11:01:46;99212.44;;;6.35;100.00
74659;BME280;63186;51.204;6.536;2023-03-14T11:07:03;99228.66;;;6.31;100.00
74659;BME280;63186;51.204;6.536;2023-03-14T11:26:29;99298.78;;;6.36;100.00
74659;BME280;63186;51.204;6.536;2023-03-14T11:31:35;99307.69;;;6.67;100.00
74659;BME280;63186;51.204;6.536;2023-03-14T11:34:22;99325.41;;;6.87;100.00
74659;BME280;63186;51.204;6.536;2023-03-14T11:37:05;99325.06;;;6.89;98.10
74659;BME280;63186;51.204;6.536;2023-03-14T11:39:39;99333.94;;;6.86;99.25
74659;BME280;63186;51.204;6.536;2023-03-14T11:42:10;99350.00;;;6.96;98.90
74659;BME280;63186;51.204;6.536;2023-03-14T11:44:38;99345.50;;;7.00;96.49
74659;BME280;63186;51.204;6.536;2023-03-14T11:47:37;99365.28;;;6.88;95.84
74659;BME280;63186;51.204;6.536;2023-03-14T11:50:14;99359.97;;;6.74;92.59
74659;BME280;63186;51.204;6.536;2023-03-14T11:52:46;99369.78;;;6.67;94.68
74659;BME280;63186;51.204;6.536;2023-03-14T11:55:26;99377.25;;;6.44;93.24
74659;BME280;63186;51.204;6.536;2023-03-14T11:57:56;99391.06;;;6.39;94.21
74659;BME280;63186;51.204;6.536;2023-03-14T12:00:24;99387.38;;;6.35;95.39
74659;BME280;63186;51.204;6.536;2023-03-14T12:10:55;99436.34;;;6.22;94.97
74659;BME280;63186;51.204;6.536;2023-03-14T12:13:28;99437.97;;;6.23;95.98
74659;BME280;63186;51.204;6.536;2023-03-14T12:15:59;99452.56;;;6.19;95.20
74659;BME280;63186;51.204;6.536;2023-03-14T12:18:33;99462.63;;;6.10;94.71
74659;BME280;63186;51.204;6.536;2023-03-14T12:21:12;99472.56;;;6.06;95.80
74659;BME280;63186;51.204;6.536;2023-03-14T12:23:43;99476.84;;;6.20;95.78
74659;BME280;63186;51.204;6.536;2023-03-14T12:26:15;99488.75;;;6.56;94.38
74659;BME280;63186;51.204;6.536;2023-03-14T12:31:41;99506.34;;;7.20;91.47
74659;BME280;63186;51.204;6.536;2023-03-14T12:34:31;99518.44;;;7.28;91.17
74659;BME280;63186;51.204;6.536;2023-03-14T12:39:33;99520.94;;;6.98;94.47
74659;BME280;63186;51.204;6.536;2023-03-14T12:47:47;99547.34;;;7.77;91.68
74659;BME280;63186;51.204;6.536;2023-03-14T12:49:45;99569.22;;;7.60;89.91
74659;BME280;63186;51.204;6.536;2023-03-14T12:55:02;99614.13;;;5.67;92.28
74659;BME280;63186;51.204;6.536;2023-03-14T13:02:45;99636.56;;;4.96;95.64
74659;BME280;63186;51.204;6.536;2023-03-14T13:12:54;99644.47;;;5.25;96.38
74659;BME280;63186;51.204;6.536;2023-03-14T13:15:24;99658.59;;;5.40;95.42
74659;BME280;63186;51.204;6.536;2023-03-14T13:17:53;99663.66;;;5.47;97.34
74659;BME280;63186;51.204;6.536;2023-03-14T13:20:24;99673.16;;;5.63;96.61
74659;BME280;63186;51.204;6.536;2023-03-14T13:22:52;99679.53;;;5.72;96.35
74659;BME280;63186;51.204;6.536;2023-03-14T13:25:17;99673.53;;;5.84;94.67
74659;BME280;63186;51.204;6.536;2023-03-14T13:27:46;99685.38;;;6.07;93.72
74659;BME280;63186;51.204;6.536;2023-03-14T13:30:19;99687.56;;;6.33;94.83
74659;BME280;63186;51.204;6.536;2023-03-14T13:32:46;99697.31;;;6.70;92.95
74659;BME280;63186;51.204;6.536;2023-03-14T13:35:18;99694.69;;;6.87;90.82
74659;BME280;63186;51.204;6.536;2023-03-14T13:37:44;99688.75;;;6.85;91.37
74659;BME280;63186;51.204;6.536;2023-03-14T13:40:19;99700.41;;;6.77;91.81
74659;BME280;63186;51.204;6.536;2023-03-14T13:42:45;99706.47;;;6.65;92.40
74659;BME280;63186;51.204;6.536;2023-03-14T13:45:12;99706.63;;;6.46;88.76
74659;BME280;63186;51.204;6.536;2023-03-14T13:47:38;99705.88;;;6.55;91.80
74659;BME280;63186;51.204;6.536;2023-03-14T13:50:04;99707.75;;;6.68;92.24
74659;BME280;63186;51.204;6.536;2023-03-14T13:52:32;99707.88;;;6.63;91.84
74659;BME280;63186;51.204;6.536;2023-03-14T13:55:01;99717.19;;;6.62;91.25
74659;BME280;63186;51.204;6.536;2023-03-14T13:57:43;99719.56;;;6.55;89.06
74659;BME280;63186;51.204;6.536;2023-03-14T14:00:18;99730.50;;;6.55;89.75
74659;BME280;63186;51.204;6.536;2023-03-14T14:02:44;99733.59;;;6.39;90.14
74659;BME280;63186;51.204;6.536;2023-03-14T14:05:10;99738.22;;;6.39;91.29
74659;BME280;63186;51.204;6.536;2023-03-14T14:07:36;99733.69;;;6.34;89.66
74659;BME280;63186;51.204;6.536;2023-03-14T14:10:03;99743.50;;;6.35;91.06